sensor_id;sensor_type;location;lat;lon;timestamp;pressure;altitude;pressure_sealevel;temperature;humidity
39301;BME280;25019;42.626;23.380;2022-12-17T00:01:56;94220.66;;;5.85;100.00
39301;BME280;25019;42.626;23.380;2022-12-17T00:04:41;94143.00;;;5.38;100.00
39301;BME280;25019;42.626;23.380;2022-12-17T00:07:25;94187.63;;;5.52;100.00
39301;BME280;25019;42.626;23.380;2022-12-17T00:10:10;94216.13;;;5.74;100.00
39301;BME280;25019;42.626;23.380;2022-12-17T00:12:54;94229.22;;;5.62;100.00
39301;BME280;25019;42.626;23.380;2022-12-17T00:15:39;94204.81;;;5.54;100.00
39301;BME280;25019;42.626;23.380;2022-12-17T00:18:23;94200.78;;;5.52;100.00
39301;BME280;25019;42.626;23.380;2022-12-17T00:21:08;94210.16;;;5.48;100.00
39301;BME280;25019;42.626;23.380;2022-12-17T00:23:52;94207.31;;;5.49;100.00
39301;BME280;25019;42.626;23.380;2022-12-17T00:26:37;94195.06;;;5.55;100.00
39301;BME280;25019;42.626;23.380;2022-12-17T00:29:21;94117.38;;;4.97;100.00
39301;BME280;25019;42.626;23.380;2022-12-17T00:32:07;94188.19;;;5.54;100.00
39301;BME280;25019;42.626;23.380;2022-12-17T00:34:51;94169.56;;;5.37;100.00
39301;BME280;25019;42.626;23.380;2022-12-17T00:37:37;94202.19;;;5.54;100.00
39301;BME280;25019;42.626;23.380;2022-12-17T00:40:21;94199.91;;;5.58;100.00
39301;BME280;25019;42.626;23.380;2022-12-17T00:43:10;94190.75;;;5.61;100.00
39301;BME280;25019;42.626;23.380;2022-12-17T00:45:54;94111.75;;;5.12;100.00
39301;BME280;25019;42.626;23.380;2022-12-17T00:48:38;94200.19;;;5.68;100.00
39301;BME280;25019;42.626;23.380;2022-12-17T00:51:23;94168.69;;;5.43;100.00
39301;BME280;25019;42.626;23.380;2022-12-17T00:54:07;94106.19;;;5.01;100.00
39301;BME280;25019;42.626;23.380;2022-12-17T00:56:51;94171.22;;;5.50;100.00
39301;BME280;25019;42.626;23.380;2022-12-17T00:59:36;94182.94;;;5.54;100.00
39301;BME280;25019;42.626;23.380;2022-12-17T01:02:22;94180.72;;;5.51;100.00
39301;BME280;25019;42.626;23.380;2022-12-17T01:05:06;94165.53;;;5.34;100.00
39301;BME280;25019;42.626;23.380;2022-12-17T01:07:51;94123.59;;;5.02;100.00
39301;BME280;25019;42.626;23.380;2022-12-17T01:10:35;94190.91;;;5.47;100.00
39301;BME280;25019;42.626;23.380;2022-12-17T01:13:19;94135.88;;;5.08;100.00
39301;BME280;25019;42.626;23.380;2022-12-17T01:16:09;94193.31;;;5.49;100.00
39301;BME280;25019;42.626;23.380;2022-12-17T01:19:13;94187.34;;;5.42;100.00
39301;BME280;25019;42.626;23.380;2022-12-17T01:21:57;94186.09;;;5.44;100.00
39301;BME280;25019;42.626;23.380;2022-12-17T01:24:42;94142.91;;;5.15;100.00
39301;BME280;25019;42.626;23.380;2022-12-17T01:27:26;94195.88;;;5.37;100.00
39301;BME280;25019;42.626;23.380;2022-12-17T01:30:11;94184.78;;;5.35;100.00
39301;BME280;25019;42.626;23.380;2022-12-17T01:33:06;94193.78;;;5.27;100.00
39301;BME280;25019;42.626;23.380;2022-12-17T01:35:55;94174.16;;;5.23;100.00
39301;BME280;25019;42.626;23.380;2022-12-17T01:38:39;94196.66;;;5.25;100.00
39301;BME280;25019;42.626;23.380;2022-12-17T01:41:24;94198.97;;;5.15;100.00
39301;BME280;25019;42.626;23.380;2022-12-17T01:47:17;94177.56;;;5.12;100.00
39301;BME280;25019;42.626;23.380;2022-12-17T01:50:01;94188.44;;;5.15;100.00
39301;BME280;25019;42.626;23.380;2022-12-17T01:52:47;94190.13;;;5.09;100.00
39301;BME280;25019;42.626;23.380;2022-12-17T01:55:34;94166.47;;;5.03;100.00
39301;BME280;25019;42.626;23.380;2022-12-17T01:58:18;94193.63;;;5.22;100.00
39301;BME280;25019;42.626;23.380;2022-12-17T02:01:02;94136.59;;;4.78;100.00
39301;BME280;25019;42.626;23.380;2022-12-17T02:03:46;94120.66;;;4.73;100.00
39301;BME280;25019;42.626;23.380;2022-12-17T02:06:32;94182.31;;;5.21;100.00
39301;BME280;25019;42.626;23.380;2022-12-17T02:09:36;94176.38;;;5.26;100.00
39301;BME280;25019;42.626;23.380;2022-12-17T02:12:37;94192.22;;;5.38;100.00
39301;BME280;25019;42.626;23.380;2022-12-17T02:15:40;94186.31;;;5.43;100.00
39301;BME280;25019;42.626;23.380;2022-12-17T02:18:36;94128.84;;;5.02;100.00
39301;BME280;25019;42.626;23.380;2022-12-17T02:21:24;94157.66;;;5.34;100.00
39301;BME280;25019;42.626;23.380;2022-12-17T02:24:19;94120.81;;;5.16;100.00
39301;BME280;25019;42.626;23.380;2022-12-17T02:27:08;94170.22;;;5.32;100.00
39301;BME280;25019;42.626;23.380;2022-12-17T02:29:55;94133.88;;;5.22;100.00
39301;BME280;25019;42.626;23.380;2022-12-17T02:32:43;94174.22;;;5.53;100.00
39301;BME280;25019;42.626;23.380;2022-12-17T02:35:36;94177.22;;;5.57;100.00
39301;BME280;25019;42.626;23.380;2022-12-17T02:38:25;94181.81;;;5.62;100.00
39301;BME280;25019;42.626;23.380;2022-12-17T02:41:17;94038.00;;;4.81;100.00
39301;BME280;25019;42.626;23.380;2022-12-17T02:44:05;94138.28;;;5.59;100.00
39301;BME280;25019;42.626;23.380;2022-12-17T02:46:53;94087.28;;;5.23;100.00
39301;BME280;25019;42.626;23.380;2022-12-17T02:49:38;94111.09;;;5.47;100.00
39301;BME280;25019;42.626;23.380;2022-12-17T02:52:23;94067.47;;;5.20;100.00
39301;BME280;25019;42.626;23.380;2022-12-17T02:55:08;94130.97;;;5.61;100.00
39301;BME280;25019;42.626;23.380;2022-12-17T02:57:52;94146.94;;;5.78;100.00
39301;BME280;25019;42.626;23.380;2022-12-17T03:00:36;94131.94;;;5.79;100.00
39301;BME280;25019;42.626;23.380;2022-12-17T03:03:22;94036.47;;;5.22;100.00
39301;BME280;25019;42.626;23.380;2022-12-17T03:06:07;94033.47;;;5.19;100.00
39301;BME280;25019;42.626;23.380;2022-12-17T03:08:51;94112.69;;;5.78;100.00
39301;BME280;25019;42.626;23.380;2022-12-17T03:11:35;94098.13;;;5.76;100.00
39301;BME280;25019;42.626;23.380;2022-12-17T03:14:19;94105.25;;;5.87;100.00
39301;BME280;25019;42.626;23.380;2022-12-17T03:17:04;94103.34;;;5.94;100.00
39301;BME280;25019;42.626;23.380;2022-12-17T03:19:48;94055.28;;;5.68;100.00
39301;BME280;25019;42.626;23.380;2022-12-17T03:22:32;94090.94;;;5.95;100.00
39301;BME280;25019;42.626;23.380;2022-12-17T03:25:17;94092.09;;;5.99;100.00
39301;BME280;25019;42.626;23.380;2022-12-17T03:28:06;94096.59;;;5.98;100.00
39301;BME280;25019;42.626;23.380;2022-12-17T03:30:51;94008.47;;;5.40;100.00
39301;BME280;25019;42.626;23.380;2022-12-17T03:33:36;94099.53;;;5.90;100.00
39301;BME280;25019;42.626;23.380;2022-12-17T03:36:24;94008.78;;;5.32;100.00
39301;BME280;25019;42.626;23.380;2022-12-17T03:39:08;94091.06;;;5.88;100.00
39301;BME280;25019;42.626;23.380;2022-12-17T03:41:52;94063.84;;;5.64;100.00
39301;BME280;25019;42.626;23.380;2022-12-17T03:44:37;94101.41;;;6.02;100.00
39301;BME280;25019;42.626;23.380;2022-12-17T03:47:21;94090.75;;;5.96;100.00
39301;BME280;25019;42.626;23.380;2022-12-17T03:50:06;94089.78;;;5.91;100.00
39301;BME280;25019;42.626;23.380;2022-12-17T03:52:50;94061.78;;;5.66;100.00
39301;BME280;25019;42.626;23.380;2022-12-17T03:55:35;94108.81;;;5.93;100.00
39301;BME280;25019;42.626;23.380;2022-12-17T03:58:19;94083.13;;;5.76;100.00
39301;BME280;25019;42.626;23.380;2022-12-17T04:01:03;94087.94;;;5.79;100.00
39301;BME280;25019;42.626;23.380;2022-12-17T04:03:48;94113.28;;;5.80;100.00
39301;BME280;25019;42.626;23.380;2022-12-17T04:06:32;94082.06;;;5.65;100.00
39301;BME280;25019;42.626;23.380;2022-12-17T04:09:17;94115.97;;;5.74;100.00
39301;BME280;25019;42.626;23.380;2022-12-17T04:12:01;94120.91;;;5.70;100.00
39301;BME280;25019;42.626;23.380;2022-12-17T04:14:45;94123.66;;;5.63;100.00
39301;BME280;25019;42.626;23.380;2022-12-17T04:17:29;94103.59;;;5.62;100.00
39301;BME280;25019;42.626;23.380;2022-12-17T04:20:13;94133.94;;;5.65;100.00
39301;BME280;25019;42.626;23.380;2022-12-17T04:22:57;94133.59;;;5.61;100.00
39301;BME280;25019;42.626;23.380;2022-12-17T04:25:42;94129.94;;;5.62;100.00
39301;BME280;25019;42.626;23.380;2022-12-17T04:28:26;93920.84;;;4.29;100.00
39301;BME280;25019;42.626;23.380;2022-12-17T04:31:10;94131.09;;;5.66;100.00
39301;BME280;25019;42.626;23.380;2022-12-17T04:33:54;94117.56;;;5.63;100.00
39301;BME280;25019;42.626;23.380;2022-12-17T04:36:39;94107.72;;;5.70;100.00
39301;BME280;25019;42.626;23.380;2022-12-17T04:39:23;94124.38;;;5.70;100.00
39301;BME280;25019;42.626;23.380;2022-12-17T04:42:07;94082.75;;;5.30;100.00
39301;BME280;25019;42.626;23.380;2022-12-17T04:44:51;94143.94;;;5.75;100.00
39301;BME280;25019;42.626;23.380;2022-12-17T04:47:35;94131.94;;;5.79;100.00
39301;BME280;25019;42.626;23.380;2022-12-17T04:50:20;94114.13;;;5.62;100.00
39301;BME280;25019;42.626;23.380;2022-12-17T04:53:05;94058.91;;;5.25;100.00
39301;BME280;25019;42.626;23.380;2022-12-17T04:55:53;94149.03;;;5.88;100.00
39301;BME280;25019;42.626;23.380;2022-12-17T04:58:38;94158.28;;;5.79;100.00
39301;BME280;25019;42.626;23.380;2022-12-17T05:01:22;94151.53;;;5.83;100.00
39301;BME280;25019;42.626;23.380;2022-12-17T05:04:06;94050.63;;;5.09;100.00
39301;BME280;25019;42.626;23.380;2022-12-17T05:06:50;94155.03;;;5.65;100.00
39301;BME280;25019;42.626;23.380;2022-12-17T05:09:35;94180.66;;;5.88;100.00
39301;BME280;25019;42.626;23.380;2022-12-17T05:12:19;94197.06;;;5.90;100.00
39301;BME280;25019;42.626;23.380;2022-12-17T05:15:04;94179.19;;;5.92;100.00
39301;BME280;25019;42.626;23.380;2022-12-17T05:17:51;94197.84;;;5.91;100.00
39301;BME280;25019;42.626;23.380;2022-12-17T05:20:35;94212.66;;;5.92;100.00
39301;BME280;25019;42.626;23.380;2022-12-17T05:23:20;94114.28;;;5.49;100.00
39301;BME280;25019;42.626;23.380;2022-12-17T05:28:50;94093.28;;;5.30;100.00
39301;BME280;25019;42.626;23.380;2022-12-17T05:31:34;94177.34;;;5.93;100.00
39301;BME280;25019;42.626;23.380;2022-12-17T05:34:18;94124.53;;;5.57;100.00
39301;BME280;25019;42.626;23.380;2022-12-17T05:37:02;94204.16;;;6.08;100.00
39301;BME280;25019;42.626;23.380;2022-12-17T05:39:46;94161.94;;;5.78;100.00
39301;BME280;25019;42.626;23.380;2022-12-17T05:42:31;94202.44;;;6.14;100.00
39301;BME280;25019;42.626;23.380;2022-12-17T05:45:15;94199.56;;;6.15;100.00
39301;BME280;25019;42.626;23.380;2022-12-17T05:47:59;94205.09;;;6.14;100.00
39301;BME280;25019;42.626;23.380;2022-12-17T05:50:51;94197.41;;;6.12;100.00
39301;BME280;25019;42.626;23.380;2022-12-17T05:53:35;94196.44;;;6.07;100.00
39301;BME280;25019;42.626;23.380;2022-12-17T05:56:19;94201.44;;;5.96;100.00
39301;BME280;25019;42.626;23.380;2022-12-17T05:59:04;94189.16;;;5.90;100.00
39301;BME280;25019;42.626;23.380;2022-12-17T06:01:48;94203.72;;;5.93;100.00
39301;BME280;25019;42.626;23.380;2022-12-17T06:04:33;94184.47;;;5.92;100.00
39301;BME280;25019;42.626;23.380;2022-12-17T06:07:17;94178.56;;;5.78;100.00
39301;BME280;25019;42.626;23.380;2022-12-17T06:10:02;94167.91;;;5.73;100.00
39301;BME280;25019;42.626;23.380;2022-12-17T06:12:56;94132.81;;;5.42;100.00
39301;BME280;25019;42.626;23.380;2022-12-17T06:15:40;94202.34;;;5.90;100.00
39301;BME280;25019;42.626;23.380;2022-12-17T06:18:24;94207.75;;;5.95;100.00
39301;BME280;25019;42.626;23.380;2022-12-17T06:21:08;94194.06;;;5.87;100.00
39301;BME280;25019;42.626;23.380;2022-12-17T06:23:52;94205.56;;;5.92;100.00
39301;BME280;25019;42.626;23.380;2022-12-17T06:26:36;94208.84;;;5.88;100.00
39301;BME280;25019;42.626;23.380;2022-12-17T06:29:21;94238.19;;;6.10;100.00
39301;BME280;25019;42.626;23.380;2022-12-17T06:32:05;94250.50;;;6.16;100.00
39301;BME280;25019;42.626;23.380;2022-12-17T06:34:50;94225.44;;;6.07;100.00
39301;BME280;25019;42.626;23.380;2022-12-17T06:37:34;94235.63;;;6.34;100.00
39301;BME280;25019;42.626;23.380;2022-12-17T06:40:18;94248.41;;;6.49;100.00
39301;BME280;25019;42.626;23.380;2022-12-17T06:43:02;94267.91;;;6.59;100.00
39301;BME280;25019;42.626;23.380;2022-12-17T06:45:48;94267.72;;;6.61;100.00
39301;BME280;25019;42.626;23.380;2022-12-17T06:48:34;94246.03;;;6.59;100.00
39301;BME280;25019;42.626;23.380;2022-12-17T06:51:18;94240.19;;;6.81;100.00
39301;BME280;25019;42.626;23.380;2022-12-17T06:54:02;94235.25;;;6.84;100.00
39301;BME280;25019;42.626;23.380;2022-12-17T06:56:47;94145.59;;;6.30;100.00
39301;BME280;25019;42.626;23.380;2022-12-17T06:59:31;94255.13;;;7.23;100.00
39301;BME280;25019;42.626;23.380;2022-12-17T07:02:15;94217.59;;;7.09;100.00
39301;BME280;25019;42.626;23.380;2022-12-17T07:04:59;94285.09;;;7.64;100.00
39301;BME280;25019;42.626;23.380;2022-12-17T07:07:44;94154.34;;;6.90;100.00
39301;BME280;25019;42.626;23.380;2022-12-17T07:10:28;94339.75;;;7.75;100.00
39301;BME280;25019;42.626;23.380;2022-12-17T07:13:12;94290.72;;;7.44;100.00
39301;BME280;25019;42.626;23.380;2022-12-17T07:15:56;94381.94;;;7.82;100.00
39301;BME280;25019;42.626;23.380;2022-12-17T07:18:41;94403.00;;;7.77;100.00
39301;BME280;25019;42.626;23.380;2022-12-17T07:21:25;94378.81;;;7.14;100.00
39301;BME280;25019;42.626;23.380;2022-12-17T07:24:09;94410.56;;;7.49;100.00
39301;BME280;25019;42.626;23.380;2022-12-17T07:26:54;94447.34;;;7.63;100.00
39301;BME280;25019;42.626;23.380;2022-12-17T07:29:38;94421.00;;;7.68;100.00
39301;BME280;25019;42.626;23.380;2022-12-17T07:32:22;94408.75;;;7.74;100.00
39301;BME280;25019;42.626;23.380;2022-12-17T07:35:06;94385.84;;;7.79;100.00
39301;BME280;25019;42.626;23.380;2022-12-17T07:38:09;94387.78;;;7.84;100.00
39301;BME280;25019;42.626;23.380;2022-12-17T07:40:54;94391.16;;;7.79;100.00
39301;BME280;25019;42.626;23.380;2022-12-17T07:43:38;94425.38;;;7.98;100.00
39301;BME280;25019;42.626;23.380;2022-12-17T07:46:23;94433.91;;;8.00;100.00
39301;BME280;25019;42.626;23.380;2022-12-17T07:49:07;94377.94;;;7.79;100.00
39301;BME280;25019;42.626;23.380;2022-12-17T07:52:08;94365.16;;;7.88;100.00
39301;BME280;25019;42.626;23.380;2022-12-17T07:54:52;94352.75;;;7.89;100.00
39301;BME280;25019;42.626;23.380;2022-12-17T07:57:37;94261.81;;;8.19;100.00
39301;BME280;25019;42.626;23.380;2022-12-17T08:00:21;94279.09;;;9.36;100.00
39301;BME280;25019;42.626;23.380;2022-12-17T08:03:05;94226.34;;;10.01;100.00
39301;BME280;25019;42.626;23.380;2022-12-17T08:05:50;94202.22;;;10.30;100.00
39301;BME280;25019;42.626;23.380;2022-12-17T08:08:34;94207.03;;;10.93;100.00
39301;BME280;25019;42.626;23.380;2022-12-17T08:11:20;94123.09;;;10.54;100.00
39301;BME280;25019;42.626;23.380;2022-12-17T08:14:04;94204.97;;;11.48;100.00
39301;BME280;25019;42.626;23.380;2022-12-17T08:16:48;94209.28;;;11.60;100.00
39301;BME280;25019;42.626;23.380;2022-12-17T08:19:32;94209.91;;;11.82;100.00
39301;BME280;25019;42.626;23.380;2022-12-17T08:22:16;94160.09;;;11.67;100.00
39301;BME280;25019;42.626;23.380;2022-12-17T08:25:01;94268.69;;;12.39;100.00
39301;BME280;25019;42.626;23.380;2022-12-17T08:27:45;94227.88;;;12.13;100.00
39301;BME280;25019;42.626;23.380;2022-12-17T08:30:29;94310.81;;;12.63;100.00
39301;BME280;25019;42.626;23.380;2022-12-17T08:46:48;94266.03;;;13.74;100.00
39301;BME280;25019;42.626;23.380;2022-12-17T08:49:32;94278.22;;;14.01;100.00
39301;BME280;25019;42.626;23.380;2022-12-17T08:52:16;94304.63;;;14.13;100.00
39301;BME280;25019;42.626;23.380;2022-12-17T08:55:00;94334.47;;;14.35;100.00
39301;BME280;25019;42.626;23.380;2022-12-17T08:57:57;94385.66;;;14.68;100.00
39301;BME280;25019;42.626;23.380;2022-12-17T09:00:42;94425.34;;;14.15;100.00
39301;BME280;25019;42.626;23.380;2022-12-17T09:03:26;94376.53;;;13.37;100.00
39301;BME280;25019;42.626;23.380;2022-12-17T09:06:11;94418.44;;;13.46;100.00
39301;BME280;25019;42.626;23.380;2022-12-17T09:08:55;94343.13;;;13.03;100.00
39301;BME280;25019;42.626;23.380;2022-12-17T09:11:40;94389.53;;;13.02;100.00
39301;BME280;25019;42.626;23.380;2022-12-17T09:14:25;94418.06;;;13.01;100.00
39301;BME280;25019;42.626;23.380;2022-12-17T09:17:09;94411.94;;;12.96;100.00
39301;BME280;25019;42.626;23.380;2022-12-17T09:19:54;94408.41;;;12.85;100.00
39301;BME280;25019;42.626;23.380;2022-12-17T09:22:38;94404.13;;;12.73;100.00
39301;BME280;25019;42.626;23.380;2022-12-17T09:25:23;94438.47;;;12.70;100.00
39301;BME280;25019;42.626;23.380;2022-12-17T09:28:07;94443.72;;;12.54;100.00
39301;BME280;25019;42.626;23.380;2022-12-17T09:30:51;94428.97;;;12.31;100.00
39301;BME280;25019;42.626;23.380;2022-12-17T09:33:36;94436.50;;;12.44;100.00
39301;BME280;25019;42.626;23.380;2022-12-17T09:36:20;94422.94;;;12.51;100.00
39301;BME280;25019;42.626;23.380;2022-12-17T09:39:04;94445.09;;;12.62;100.00
39301;BME280;25019;42.626;23.380;2022-12-17T09:50:51;94438.88;;;11.98;100.00
39301;BME280;25019;42.626;23.380;2022-12-17T09:53:44;94433.19;;;11.84;100.00
39301;BME280;25019;42.626;23.380;2022-12-17T09:56:31;94445.06;;;11.76;100.00
39301;BME280;25019;42.626;23.380;2022-12-17T09:59:32;94436.84;;;11.78;100.00
39301;BME280;25019;42.626;23.380;2022-12-17T10:02:19;94452.00;;;11.45;100.00
39301;BME280;25019;42.626;23.380;2022-12-17T10:05:07;94447.06;;;11.26;100.00
39301;BME280;25019;42.626;23.380;2022-12-17T10:07:56;94389.41;;;10.77;100.00
39301;BME280;25019;42.626;23.380;2022-12-17T10:10:43;94404.84;;;11.07;100.00
39301;BME280;25019;42.626;23.380;2022-12-17T10:13:28;94418.47;;;11.11;100.00
39301;BME280;25019;42.626;23.380;2022-12-17T10:16:33;94430.84;;;11.00;100.00
39301;BME280;25019;42.626;23.380;2022-12-17T10:19:28;94440.13;;;10.75;100.00
39301;BME280;25019;42.626;23.380;2022-12-17T10:22:14;94434.13;;;10.41;100.00
39301;BME280;25019;42.626;23.380;2022-12-17T10:25:06;94454.41;;;10.30;100.00
39301;BME280;25019;42.626;23.380;2022-12-17T10:28:21;94473.81;;;10.30;100.00
39301;BME280;25019;42.626;23.380;2022-12-17T10:31:09;94467.28;;;10.21;100.00
39301;BME280;25019;42.626;23.380;2022-12-17T10:34:13;94485.63;;;10.05;100.00
39301;BME280;25019;42.626;23.380;2022-12-17T10:36:59;94485.09;;;10.03;100.00
39301;BME280;25019;42.626;23.380;2022-12-17T10:39:53;94456.38;;;9.66;100.00
39301;BME280;25019;42.626;23.380;2022-12-17T10:42:38;94485.56;;;9.83;100.00
39301;BME280;25019;42.626;23.380;2022-12-17T10:45:31;94455.09;;;9.86;100.00
39301;BME280;25019;42.626;23.380;2022-12-17T10:48:28;94469.41;;;9.85;100.00
39301;BME280;25019;42.626;23.380;2022-12-17T10:51:28;94452.78;;;9.89;100.00
39301;BME280;25019;42.626;23.380;2022-12-17T10:54:22;94440.38;;;9.95;100.00
39301;BME280;25019;42.626;23.380;2022-12-17T11:00:01;94459.75;;;9.96;100.00
39301;BME280;25019;42.626;23.380;2022-12-17T11:02:46;94445.28;;;10.03;100.00
39301;BME280;25019;42.626;23.380;2022-12-17T11:05:34;94419.50;;;10.21;100.00
39301;BME280;25019;42.626;23.380;2022-12-17T11:08:19;94399.88;;;10.39;100.00
39301;BME280;25019;42.626;23.380;2022-12-17T11:11:07;94429.75;;;10.52;100.00
39301;BME280;25019;42.626;23.380;2022-12-17T11:13:54;94396.47;;;10.44;100.00
39301;BME280;25019;42.626;23.380;2022-12-17T11:16:59;94429.75;;;10.74;100.00
39301;BME280;25019;42.626;23.380;2022-12-17T11:19:56;94421.22;;;10.94;100.00
39301;BME280;25019;42.626;23.380;2022-12-17T11:22:46;94431.19;;;11.09;100.00
39301;BME280;25019;42.626;23.380;2022-12-17T11:28:23;94421.53;;;11.25;100.00
39301;BME280;25019;42.626;23.380;2022-12-17T11:43:21;94421.59;;;11.35;100.00
39301;BME280;25019;42.626;23.380;2022-12-17T12:11:10;94464.19;;;11.13;100.00
39301;BME280;25019;42.626;23.380;2022-12-17T12:17:31;94487.44;;;11.23;100.00
39301;BME280;25019;42.626;23.380;2022-12-17T12:20:32;94481.06;;;11.24;100.00
39301;BME280;25019;42.626;23.380;2022-12-17T12:26:28;94478.44;;;11.29;100.00
39301;BME280;25019;42.626;23.380;2022-12-17T12:29:42;94475.28;;;11.32;100.00
39301;BME280;25019;42.626;23.380;2022-12-17T12:35:38;94469.53;;;11.73;100.00
39301;BME280;25019;42.626;23.380;2022-12-17T12:38:30;94479.34;;;12.00;100.00
39301;BME280;25019;42.626;23.380;2022-12-17T12:44:15;94474.88;;;12.06;100.00
39301;BME280;25019;42.626;23.380;2022-12-17T12:47:08;94420.75;;;11.62;100.00
39301;BME280;25019;42.626;23.380;2022-12-17T12:50:16;94462.22;;;11.91;100.00
39301;BME280;25019;42.626;23.380;2022-12-17T12:53:06;94463.13;;;12.02;100.00
39301;BME280;25019;42.626;23.380;2022-12-17T12:55:52;94452.31;;;11.81;100.00
39301;BME280;25019;42.626;23.380;2022-12-17T12:58:37;94469.13;;;11.59;100.00
39301;BME280;25019;42.626;23.380;2022-12-17T13:01:31;94459.38;;;11.65;100.00
39301;BME280;25019;42.626;23.380;2022-12-17T13:04:28;94468.19;;;11.43;100.00
39301;BME280;25019;42.626;23.380;2022-12-17T13:07:21;94474.63;;;11.47;100.00
39301;BME280;25019;42.626;23.380;2022-12-17T13:09:50;94454.59;;;11.39;100.00
39301;BME280;25019;42.626;23.380;2022-12-17T13:12:21;94404.00;;;11.02;100.00
39301;BME280;25019;42.626;23.380;2022-12-17T13:14:55;94464.28;;;11.23;100.00
39301;BME280;25019;42.626;23.380;2022-12-17T13:17:27;94463.88;;;11.09;100.00
39301;BME280;25019;42.626;23.380;2022-12-17T13:24:51;94463.00;;;10.54;100.00
39301;BME280;25019;42.626;23.380;2022-12-17T13:27:30;94476.38;;;10.64;100.00
39301;BME280;25019;42.626;23.380;2022-12-17T13:35:28;94501.72;;;10.72;100.00
39301;BME280;25019;42.626;23.380;2022-12-17T13:41:17;94507.34;;;10.76;100.00
39301;BME280;25019;42.626;23.380;2022-12-17T13:43:29;94495.59;;;10.72;100.00
39301;BME280;25019;42.626;23.380;2022-12-17T13:45:55;94489.63;;;10.59;100.00
39301;BME280;25019;42.626;23.380;2022-12-17T13:48:23;94490.34;;;10.38;100.00
39301;BME280;25019;42.626;23.380;2022-12-17T13:50:57;94498.72;;;10.46;100.00
39301;BME280;25019;42.626;23.380;2022-12-17T13:53:25;94493.00;;;10.38;100.00
39301;BME280;25019;42.626;23.380;2022-12-17T13:55:53;94508.63;;;10.51;100.00
39301;BME280;25019;42.626;23.380;2022-12-17T13:58:30;94442.03;;;10.18;100.00
39301;BME280;25019;42.626;23.380;2022-12-17T14:01:08;94509.34;;;10.46;100.00
39301;BME280;25019;42.626;23.380;2022-12-17T14:03:35;94515.19;;;10.48;100.00
39301;BME280;25019;42.626;23.380;2022-12-17T14:06:01;94471.22;;;10.18;100.00
39301;BME280;25019;42.626;23.380;2022-12-17T14:08:30;94526.16;;;10.52;100.00
39301;BME280;25019;42.626;23.380;2022-12-17T14:10:57;94528.88;;;10.57;100.00
39301;BME280;25019;42.626;23.380;2022-12-17T14:13:45;94523.59;;;10.40;100.00
39301;BME280;25019;42.626;23.380;2022-12-17T14:16:16;94519.41;;;10.27;100.00
39301;BME280;25019;42.626;23.380;2022-12-17T14:18:47;94510.50;;;10.16;100.00
39301;BME280;25019;42.626;23.380;2022-12-17T14:21:14;94536.47;;;10.31;100.00
39301;BME280;25019;42.626;23.380;2022-12-17T14:23:40;94540.22;;;10.35;100.00
39301;BME280;25019;42.626;23.380;2022-12-17T14:26:10;94540.69;;;10.32;100.00
39301;BME280;25019;42.626;23.380;2022-12-17T14:28:45;94487.09;;;9.96;100.00
39301;BME280;25019;42.626;23.380;2022-12-17T14:31:18;94542.56;;;10.32;100.00
39301;BME280;25019;42.626;23.380;2022-12-17T14:33:44;94511.03;;;10.18;100.00
39301;BME280;25019;42.626;23.380;2022-12-17T14:39:16;94538.69;;;10.23;100.00
39301;BME280;25019;42.626;23.380;2022-12-17T14:41:42;94538.69;;;10.23;100.00
39301;BME280;25019;42.626;23.380;2022-12-17T14:44:28;94507.28;;;9.97;100.00
39301;BME280;25019;42.626;23.380;2022-12-17T14:49:33;94537.50;;;10.13;100.00
39301;BME280;25019;42.626;23.380;2022-12-17T14:51:59;94527.06;;;9.89;100.00
39301;BME280;25019;42.626;23.380;2022-12-17T14:54:28;94557.34;;;10.11;100.00
39301;BME280;25019;42.626;23.380;2022-12-17T14:56:55;94558.19;;;10.11;100.00
39301;BME280;25019;42.626;23.380;2022-12-17T14:59:36;94573.06;;;10.12;100.00
39301;BME280;25019;42.626;23.380;2022-12-17T15:04:36;94482.41;;;9.52;100.00
39301;BME280;25019;42.626;23.380;2022-12-17T15:07:04;94566.63;;;10.08;100.00
39301;BME280;25019;42.626;23.380;2022-12-17T15:09:37;94562.56;;;10.05;100.00
39301;BME280;25019;42.626;23.380;2022-12-17T15:12:03;94573.06;;;10.12;100.00
39301;BME280;25019;42.626;23.380;2022-12-17T15:14:29;94571.44;;;10.11;100.00
39301;BME280;25019;42.626;23.380;2022-12-17T15:16:55;94520.69;;;9.73;100.00
39301;BME280;25019;42.626;23.380;2022-12-17T15:19:21;94576.34;;;10.02;100.00
39301;BME280;25019;42.626;23.380;2022-12-17T15:21:47;94586.16;;;10.02;100.00
39301;BME280;25019;42.626;23.380;2022-12-17T15:24:17;94552.91;;;9.65;100.00
39301;BME280;25019;42.626;23.380;2022-12-17T15:26:43;94599.66;;;10.00;100.00
39301;BME280;25019;42.626;23.380;2022-12-17T15:29:09;94597.22;;;9.99;100.00
39301;BME280;25019;42.626;23.380;2022-12-17T15:31:34;94533.09;;;9.56;100.00
39301;BME280;25019;42.626;23.380;2022-12-17T15:34:00;94520.06;;;9.37;100.00
39301;BME280;25019;42.626;23.380;2022-12-17T15:36:26;94535.03;;;9.43;100.00
39301;BME280;25019;42.626;23.380;2022-12-17T15:38:51;94527.03;;;9.26;100.00
39301;BME280;25019;42.626;23.380;2022-12-17T15:41:17;94597.50;;;9.68;100.00
39301;BME280;25019;42.626;23.380;2022-12-17T15:44:01;94549.25;;;9.25;100.00
39301;BME280;25019;42.626;23.380;2022-12-17T15:46:26;94604.78;;;9.61;100.00
39301;BME280;25019;42.626;23.380;2022-12-17T15:48:55;94603.44;;;9.58;100.00
39301;BME280;25019;42.626;23.380;2022-12-17T15:51:21;94598.59;;;9.55;100.00
39301;BME280;25019;42.626;23.380;2022-12-17T15:53:48;94604.47;;;9.57;100.00
39301;BME280;25019;42.626;23.380;2022-12-17T15:56:22;94596.78;;;9.44;100.00